Time;durP1;ratioP1;P1;durP2;ratioP2;P2;SDS_P1;SDS_P2;PMS_P1;PMS_P2;Temp;Humidity;BMP_temperature;BMP_pressure;BME280_temperature;BME280_humidity;BME280_pressure;Samples;Min_cycle;Max_cycle;Signal;HPM_P1;HPM_P2
2023/10/08 00:02:22;;;;;;;8.68;3.70;;;19.40;99.90;;;;;;5024202;28;20457;-61
2023/10/08 00:04:50;;;;;;;10.13;4.25;;;19.40;99.90;;;;;;5024098;28;20586;-59
2023/10/08 00:07:21;;;;;;;14.35;4.28;;;19.40;99.90;;;;;;5023927;28;20033;-58
2023/10/08 00:09:51;;;;;;;7.97;3.78;;;19.40;99.90;;;;;;5024019;28;20022;-58
2023/10/08 00:12:20;;;;;;;18.55;4.20;;;19.30;99.90;;;;;;5025341;28;20013;-60
2023/10/08 00:14:49;;;;;;;12.15;4.30;;;19.20;99.90;;;;;;5023613;28;20035;-56
2023/10/08 00:17:18;;;;;;;11.82;3.80;;;19.20;99.90;;;;;;5019615;28;20054;-59
2023/10/08 00:19:44;;;;;;;9.88;4.18;;;19.10;99.90;;;;;;5020818;28;20029;-58
2023/10/08 00:22:13;;;;;;;15.63;3.67;;;19.00;99.90;;;;;;5029747;28;20368;-56
2023/10/08 00:24:41;;;;;;;10.13;4.05;;;19.00;99.90;;;;;;5025801;28;20034;-57
2023/10/08 00:27:08;;;;;;;9.38;3.83;;;19.00;99.90;;;;;;5021049;28;20442;-59
2023/10/08 00:29:34;;;;;;;8.68;4.10;;;18.90;99.90;;;;;;5020462;28;20075;-58
2023/10/08 00:31:59;;;;;;;14.45;4.13;;;18.90;99.90;;;;;;5025324;28;20038;-60
2023/10/08 00:34:27;;;;;;;10.73;4.25;;;18.80;99.90;;;;;;5023331;28;20083;-58
2023/10/08 00:36:52;;;;;;;10.20;4.68;;;18.70;99.90;;;;;;5020135;28;20471;-58
2023/10/08 00:39:24;;;;;;;10.38;3.80;;;18.60;99.90;;;;;;5026823;28;20044;-59
2023/10/08 00:41:54;;;;;;;17.08;4.38;;;18.60;99.90;;;;;;5021019;28;20030;-56
2023/10/08 00:44:24;;;;;;;14.23;4.37;;;18.70;99.90;;;;;;5021603;28;20494;-55
2023/10/08 00:46:50;;;;;;;13.20;3.90;;;18.70;99.90;;;;;;5018717;28;20060;-52
2023/10/08 00:57:28;;;;;;;11.23;3.78;;;18.70;99.90;;;;;;5017197;28;20096;-58
2023/10/08 00:59:55;;;;;;;11.85;4.20;;;18.60;99.90;;;;;;5021262;28;20439;-58
2023/10/08 01:02:27;;;;;;;6.57;3.30;;;18.70;99.90;;;;;;5031795;28;20029;-58
2023/10/08 01:04:56;;;;;;;10.15;4.22;;;18.60;99.90;;;;;;5017809;28;20056;-59
2023/10/08 01:07:24;;;;;;;11.90;4.88;;;18.60;99.90;;;;;;5026644;28;20053;-58
2023/10/08 01:09:50;;;;;;;12.52;4.30;;;18.60;99.90;;;;;;5017140;28;20037;-60
2023/10/08 01:12:27;;;;;;;13.13;4.40;;;18.60;99.90;;;;;;5017852;28;20451;-60
2023/10/08 01:14:54;;;;;;;12.10;4.65;;;18.60;99.90;;;;;;5020436;28;20067;-60
2023/10/08 01:17:26;;;;;;;11.98;4.32;;;18.60;99.90;;;;;;5020422;28;20053;-62
2023/10/08 01:20:20;;;;;;;11.70;3.78;;;18.60;99.90;;;;;;5027238;28;20033;-61
2023/10/08 01:22:46;;;;;;;9.75;3.53;;;18.50;99.90;;;;;;5019397;28;20149;-60
2023/10/08 01:25:20;;;;;;;10.77;4.25;;;18.40;99.90;;;;;;5025568;28;20491;-60
2023/10/08 01:27:46;;;;;;;;;;;18.40;99.90;;;;;;5019860;28;20041;-61
2023/10/08 01:30:17;;;;;;;10.68;3.42;;;18.30;99.90;;;;;;5016265;28;19932;-57
2023/10/08 01:32:43;;;;;;;13.95;4.07;;;18.30;99.90;;;;;;5022979;28;20036;-60
2023/10/08 01:35:22;;;;;;;16.00;4.50;;;18.20;99.90;;;;;;5019627;28;20038;-61
2023/10/08 01:37:52;;;;;;;11.25;4.63;;;18.20;99.90;;;;;;5018209;28;20041;-60
2023/10/08 01:40:18;;;;;;;16.35;4.18;;;18.20;99.90;;;;;;5024592;28;20037;-62
2023/10/08 01:42:44;;;;;;;9.40;3.63;;;18.20;99.90;;;;;;5017237;28;20481;-61
2023/10/08 01:45:12;;;;;;;12.10;4.32;;;18.20;99.90;;;;;;5023866;28;20024;-61
2023/10/08 01:47:38;;;;;;;10.63;4.28;;;18.10;99.90;;;;;;5021210;28;20377;-57
2023/10/08 01:50:21;;;;;;;15.00;5.35;;;17.90;99.90;;;;;;5025762;28;20028;-61
2023/10/08 01:52:51;;;;;;;10.40;4.20;;;17.90;99.90;;;;;;5025765;28;20056;-53
2023/10/08 01:55:18;;;;;;;11.38;3.83;;;17.90;99.90;;;;;;5023854;28;20039;-60
2023/10/08 01:57:48;;;;;;;15.25;4.10;;;18.00;99.90;;;;;;5025219;28;20026;-57
2023/10/08 02:00:19;;;;;;;11.10;3.85;;;18.00;99.90;;;;;;5019881;28;20079;-62
2023/10/08 02:02:50;;;;;;;13.38;4.40;;;18.00;99.90;;;;;;5024048;28;20079;-61
2023/10/08 02:05:18;;;;;;;9.30;3.70;;;18.00;99.90;;;;;;5031520;28;20033;-61
2023/10/08 02:07:48;;;;;;;12.32;4.97;;;18.00;99.90;;;;;;5025374;28;20533;-62
2023/10/08 02:10:16;;;;;;;18.80;4.53;;;18.00;99.90;;;;;;5027244;28;20029;-56
2023/10/08 02:12:41;;;;;;;13.98;3.88;;;17.90;99.90;;;;;;5023361;28;20041;-58
2023/10/08 02:15:08;;;;;;;15.40;4.03;;;17.90;99.90;;;;;;5021741;28;20046;-59
2023/10/08 02:17:34;;;;;;;13.35;4.38;;;17.90;99.90;;;;;;5032972;28;20042;-58
2023/10/08 02:20:00;;;;;;;11.75;4.65;;;17.80;99.90;;;;;;5028043;28;20091;-61
2023/10/08 02:22:26;;;;;;;9.07;4.13;;;17.80;99.90;;;;;;5025583;28;20061;-59
2023/10/08 02:24:53;;;;;;;14.07;3.90;;;17.80;99.90;;;;;;5027168;28;20057;-60
2023/10/08 02:27:18;;;;;;;15.82;5.38;;;17.90;99.90;;;;;;5026907;28;20017;-55
2023/10/08 02:29:44;;;;;;;10.13;4.03;;;17.80;99.90;;;;;;5023325;28;20034;-61
2023/10/08 02:32:10;;;;;;;16.80;4.53;;;17.80;99.90;;;;;;5025897;28;20034;-61
2023/10/08 02:34:35;;;;;;;10.10;4.50;;;17.80;99.90;;;;;;5025902;28;20033;-57
2023/10/08 02:37:03;;;;;;;12.30;4.13;;;17.70;99.90;;;;;;5027825;28;20029;-59
2023/10/08 02:39:30;;;;;;;15.63;3.97;;;17.80;99.90;;;;;;5028150;28;20034;-57
2023/10/08 02:41:59;;;;;;;17.88;4.53;;;17.80;99.90;;;;;;5031714;28;20549;-58
2023/10/08 02:44:25;;;;;;;10.57;3.72;;;17.80;99.90;;;;;;5025144;28;20044;-56
2023/10/08 02:46:51;;;;;;;9.68;4.22;;;17.70;99.90;;;;;;5031436;28;20022;-60
2023/10/08 02:49:22;;;;;;;17.88;4.10;;;17.70;99.90;;;;;;5022806;28;20037;-62
2023/10/08 02:51:51;;;;;;;9.15;4.68;;;17.80;99.90;;;;;;5020999;28;20535;-61
2023/10/08 02:54:22;;;;;;;9.80;3.80;;;17.80;99.90;;;;;;5023233;28;20037;-61
2023/10/08 02:56:55;;;;;;;12.13;4.22;;;17.80;99.90;;;;;;5027539;28;20036;-61
2023/10/08 02:59:22;;;;;;;7.53;3.63;;;17.80;99.90;;;;;;5024444;28;20064;-61
2023/10/08 03:01:49;;;;;;;11.88;3.95;;;17.80;99.90;;;;;;5029225;28;20105;-59
2023/10/08 03:04:18;;;;;;;14.23;4.38;;;17.70;99.90;;;;;;5025858;28;20030;-62
2023/10/08 03:06:52;;;;;;;11.18;4.60;;;17.70;99.90;;;;;;5027389;28;20036;-60
2023/10/08 03:09:23;;;;;;;10.52;4.00;;;17.70;99.90;;;;;;5024931;28;20037;-62
2023/10/08 03:11:50;;;;;;;13.70;4.95;;;17.70;99.90;;;;;;5019307;28;20053;-61
2023/10/08 03:14:22;;;;;;;11.75;4.50;;;17.60;99.90;;;;;;5023542;28;20112;-60
2023/10/08 03:17:07;;;;;;;11.88;4.30;;;17.60;99.90;;;;;;5022452;28;20045;-60
2023/10/08 03:19:33;;;;;;;13.07;4.88;;;17.60;99.90;;;;;;5023383;28;20439;-62
2023/10/08 03:21:58;;;;;;;15.43;4.68;;;17.50;99.90;;;;;;5024010;28;20041;-61
2023/10/08 03:24:30;;;;;;;12.77;4.68;;;17.50;99.90;;;;;;5023657;28;20021;-62
2023/10/08 03:27:06;;;;;;;10.43;4.38;;;17.50;99.90;;;;;;5025360;28;20030;-62
2023/10/08 03:29:41;;;;;;;13.52;4.22;;;17.50;99.90;;;;;;5022959;28;20080;-59
2023/10/08 03:32:13;;;;;;;12.07;4.32;;;17.50;99.90;;;;;;5025426;28;20021;-61
2023/10/08 03:34:42;;;;;;;22.00;5.53;;;17.50;99.90;;;;;;5030335;28;20045;-59
2023/10/08 03:37:08;;;;;;;14.32;4.63;;;17.50;99.90;;;;;;5025782;28;20061;-60
2023/10/08 03:40:00;;;;;;;10.00;4.32;;;17.50;99.90;;;;;;5027263;28;20518;-60
2023/10/08 03:42:29;;;;;;;13.88;4.13;;;17.50;99.90;;;;;;5021918;28;20022;-59
2023/10/08 03:44:56;;;;;;;13.30;4.57;;;17.40;99.90;;;;;;5021795;28;20026;-61
2023/10/08 03:47:23;;;;;;;11.05;4.03;;;17.40;99.90;;;;;;5018453;28;20017;-59
2023/10/08 03:49:51;;;;;;;12.35;4.60;;;17.40;99.90;;;;;;5017669;28;20033;-61
2023/10/08 03:52:23;;;;;;;16.35;4.18;;;17.40;99.90;;;;;;5025186;28;20022;-60
2023/10/08 03:54:55;;;;;;;9.40;4.03;;;17.40;99.90;;;;;;5024054;28;20038;-61
2023/10/08 03:57:28;;;;;;;11.65;4.53;;;17.40;99.90;;;;;;5023537;28;20033;-59
2023/10/08 03:59:58;;;;;;;8.37;3.60;;;17.40;99.90;;;;;;5021601;28;20029;-60
2023/10/08 04:02:40;;;;;;;11.40;4.55;;;17.30;99.90;;;;;;5020888;28;20290;-60
2023/10/08 04:05:18;;;;;;;12.95;4.45;;;17.30;99.90;;;;;;5023072;28;20481;-60
2023/10/08 04:10:49;;;;;;;8.57;4.03;;;17.30;99.90;;;;;;5019701;28;20527;-59
2023/10/08 04:13:16;;;;;;;10.35;4.28;;;17.30;99.90;;;;;;5013320;28;20553;-57
2023/10/08 04:15:42;;;;;;;10.18;4.47;;;17.30;99.90;;;;;;5015447;28;20572;-57
2023/10/08 04:18:13;;;;;;;12.38;5.50;;;17.30;99.90;;;;;;5023154;28;20050;-61
2023/10/08 04:20:38;;;;;;;10.25;4.05;;;17.30;99.90;;;;;;5020036;28;20088;-59
2023/10/08 04:23:13;;;;;;;13.90;4.65;;;17.30;99.90;;;;;;5022314;28;20029;-59
2023/10/08 04:25:39;;;;;;;17.25;4.60;;;17.30;99.90;;;;;;5026554;28;20026;-59
2023/10/08 04:28:06;;;;;;;7.82;3.78;;;17.30;99.90;;;;;;5022605;28;20029;-58
2023/10/08 04:30:36;;;;;;;12.55;4.65;;;17.30;99.90;;;;;;5022450;28;20093;-58
2023/10/08 04:33:12;;;;;;;11.05;4.65;;;17.30;99.90;;;;;;5029747;28;20026;-57
2023/10/08 04:35:50;;;;;;;10.48;4.60;;;17.30;99.90;;;;;;5024779;28;20098;-60
2023/10/08 04:38:18;;;;;;;18.05;4.65;;;17.20;99.90;;;;;;5017161;28;20052;-60
2023/10/08 04:40:51;;;;;;;16.75;4.95;;;17.20;99.90;;;;;;5018698;28;20511;-60
2023/10/08 04:43:30;;;;;;;12.98;4.68;;;17.20;99.90;;;;;;5012873;28;20091;-57
2023/10/08 04:45:57;;;;;;;15.88;4.57;;;17.10;99.90;;;;;;5018760;28;20025;-59
2023/10/08 04:48:24;;;;;;;14.13;4.57;;;17.10;99.90;;;;;;5030615;28;20037;-58
2023/10/08 04:50:58;;;;;;;16.35;4.35;;;17.00;99.90;;;;;;5020778;28;20040;-61
2023/10/08 04:53:36;;;;;;;11.63;4.38;;;17.00;99.90;;;;;;5020457;28;20075;-60
2023/10/08 04:56:13;;;;;;;14.18;4.15;;;17.00;99.90;;;;;;5021320;28;20183;-56
2023/10/08 04:58:46;;;;;;;12.13;5.28;;;17.00;99.90;;;;;;5025292;28;20029;-58
2023/10/08 05:01:27;;;;;;;14.45;5.32;;;17.00;99.90;;;;;;5024890;28;20017;-57
2023/10/08 05:12:08;;;;;;;12.07;4.22;;;16.90;99.90;;;;;;5021651;28;20112;-58
2023/10/08 05:17:11;;;;;;;12.35;5.00;;;16.90;99.90;;;;;;5019285;28;20030;-59
2023/10/08 05:25:07;;;;;;;12.90;4.70;;;16.80;99.90;;;;;;5021623;28;20100;-61
2023/10/08 05:27:56;;;;;;;16.23;4.80;;;16.70;99.90;;;;;;5020878;28;20057;-61
2023/10/08 05:30:38;;;;;;;11.02;4.60;;;16.60;99.90;;;;;;5021495;28;20045;-60
2023/10/08 05:33:23;;;;;;;12.45;4.35;;;16.60;99.90;;;;;;5023401;28;20064;-60
2023/10/08 05:35:49;;;;;;;11.20;4.93;;;16.60;99.90;;;;;;5026594;28;20028;-61
2023/10/08 05:38:23;;;;;;;15.57;4.70;;;16.60;99.90;;;;;;5018743;28;20033;-60
2023/10/08 05:49:03;;;;;;;14.30;4.40;;;16.60;99.90;;;;;;5027666;28;20041;-61
2023/10/08 06:08:21;;;;;;;13.60;4.65;;;16.30;99.90;;;;;;5021845;28;20046;-58
2023/10/08 06:13:06;;;;;;;20.98;6.00;;;16.30;99.90;;;;;;5022085;28;20029;-58
2023/10/08 06:18:25;;;;;;;14.00;4.60;;;16.40;99.90;;;;;;5020284;28;20061;-52
2023/10/08 06:20:55;;;;;;;10.43;4.45;;;16.40;99.90;;;;;;5020543;28;20071;-55
2023/10/08 06:23:23;;;;;;;16.60;4.65;;;16.30;99.90;;;;;;5015252;28;20018;-55
2023/10/08 06:26:25;;;;;;;12.50;4.40;;;16.10;99.90;;;;;;5018174;28;20034;-58
2023/10/08 06:28:44;;;;;;;12.13;4.72;;;16.20;99.90;;;;;;5018379;28;20107;-55
2023/10/08 06:31:16;;;;;;;12.95;5.63;;;16.10;99.90;;;;;;5018246;28;20334;-56
2023/10/08 06:33:43;;;;;;;17.05;5.10;;;16.00;99.90;;;;;;5022930;28;20037;-56
2023/10/08 06:38:39;;;;;;;12.77;4.82;;;15.80;99.90;;;;;;5020009;28;20048;-56
2023/10/08 06:41:15;;;;;;;10.15;5.38;;;15.70;99.90;;;;;;5024693;28;20020;-59
2023/10/08 06:43:49;;;;;;;15.27;5.45;;;15.70;99.90;;;;;;5022519;28;20049;-58
2023/10/08 06:46:22;;;;;;;12.73;5.13;;;15.80;99.90;;;;;;5022825;28;20029;-57
2023/10/08 06:48:49;;;;;;;12.77;5.25;;;15.80;99.90;;;;;;5018631;28;20048;-57
2023/10/08 06:51:19;;;;;;;14.65;4.95;;;15.80;99.90;;;;;;5025890;28;20031;-57
2023/10/08 06:53:48;;;;;;;18.58;4.57;;;15.90;99.90;;;;;;5026381;28;20044;-57
2023/10/08 06:56:15;;;;;;;10.73;4.63;;;16.00;99.90;;;;;;5025719;28;20492;-60
2023/10/08 06:58:47;;;;;;;11.05;4.07;;;16.10;99.90;;;;;;5024975;28;20113;-59
2023/10/08 07:01:20;;;;;;;12.95;4.97;;;16.20;99.90;;;;;;5024905;28;20036;-54
2023/10/08 07:03:50;;;;;;;11.07;4.80;;;16.20;99.90;;;;;;5024729;28;20033;-57
2023/10/08 07:06:16;;;;;;;16.27;4.57;;;16.30;99.90;;;;;;5019943;28;20435;-60
2023/10/08 07:08:46;;;;;;;20.58;4.97;;;16.40;99.90;;;;;;5024300;28;20030;-57
2023/10/08 07:11:12;;;;;;;14.98;5.18;;;16.50;99.90;;;;;;5020518;28;20030;-55
2023/10/08 07:13:40;;;;;;;11.43;4.95;;;16.60;99.90;;;;;;5022629;28;20096;-58
2023/10/08 07:16:11;;;;;;;13.70;5.15;;;16.60;99.90;;;;;;5023760;28;20028;-58
2023/10/08 07:18:37;;;;;;;11.82;4.63;;;16.60;99.90;;;;;;5020740;28;20128;-61
2023/10/08 07:21:04;;;;;;;17.50;5.68;;;16.60;99.90;;;;;;5018109;28;20021;-55
2023/10/08 07:23:34;;;;;;;14.60;5.40;;;16.70;99.90;;;;;;5017761;28;20021;-56
2023/10/08 07:26:12;;;;;;;17.42;4.43;;;16.70;99.90;;;;;;5017947;28;20033;-56
2023/10/08 07:28:39;;;;;;;12.35;4.68;;;16.80;99.90;;;;;;5021550;28;20060;-53
2023/10/08 07:31:15;;;;;;;13.38;4.78;;;16.80;99.90;;;;;;5018989;28;20034;-56
2023/10/08 07:33:43;;;;;;;11.30;4.50;;;16.80;99.90;;;;;;5019320;28;20032;-58
2023/10/08 07:36:14;;;;;;;12.95;4.65;;;16.90;99.90;;;;;;5014890;28;20679;-56
2023/10/08 07:38:43;;;;;;;13.07;5.10;;;16.90;99.90;;;;;;5020093;28;20072;-56
2023/10/08 07:41:14;;;;;;;17.65;5.40;;;16.90;99.90;;;;;;5016195;28;20088;-64
2023/10/08 07:43:43;;;;;;;15.13;5.15;;;17.00;99.90;;;;;;5023803;28;20377;-60
2023/10/08 07:46:10;;;;;;;13.77;4.45;;;17.00;99.90;;;;;;5015230;28;20442;-57
2023/10/08 07:48:36;;;;;;;14.60;4.97;;;17.00;99.90;;;;;;5018023;28;20485;-58
2023/10/08 07:51:02;;;;;;;16.10;7.00;;;17.10;99.90;;;;;;5020941;28;20587;-57
2023/10/08 07:53:37;;;;;;;10.73;4.68;;;17.20;99.90;;;;;;5023787;28;20074;-58
2023/10/08 07:56:06;;;;;;;12.20;4.28;;;17.20;99.90;;;;;;5020541;28;20036;-58
2023/10/08 07:58:34;;;;;;;14.02;4.65;;;17.30;99.90;;;;;;5020449;28;20030;-59
2023/10/08 08:01:06;;;;;;;12.98;5.30;;;17.30;99.90;;;;;;5019635;28;20061;-58
2023/10/08 08:03:41;;;;;;;21.20;5.43;;;17.40;99.90;;;;;;5017240;28;20017;-59
2023/10/08 08:06:08;;;;;;;14.48;4.60;;;17.40;99.90;;;;;;5018276;28;20108;-58
2023/10/08 08:08:35;;;;;;;14.23;5.00;;;17.50;99.90;;;;;;5015417;28;20118;-59
2023/10/08 08:11:11;;;;;;;16.52;5.22;;;17.60;99.90;;;;;;5024830;28;20125;-59
2023/10/08 08:13:38;;;;;;;14.98;5.10;;;17.60;99.90;;;;;;5021806;28;20025;-58
2023/10/08 08:16:16;;;;;;;14.90;5.22;;;17.70;99.90;;;;;;5017300;28;20431;-58
2023/10/08 08:18:42;;;;;;;17.20;5.68;;;17.70;99.90;;;;;;5017507;28;20145;-58
2023/10/08 08:21:19;;;;;;;23.35;5.80;;;17.70;99.90;;;;;;5021257;28;20048;-58
2023/10/08 08:23:49;;;;;;;19.40;5.50;;;17.70;99.90;;;;;;5015452;28;20029;-60
2023/10/08 08:26:39;;;;;;;18.45;5.57;;;17.70;99.90;;;;;;5019747;28;20044;-59
2023/10/08 08:29:08;;;;;;;21.80;5.40;;;17.80;99.90;;;;;;5023539;28;20017;-58
2023/10/08 08:31:38;;;;;;;18.98;6.00;;;17.80;99.90;;;;;;5013101;28;20058;-60
2023/10/08 08:34:08;;;;;;;13.02;5.18;;;17.80;99.90;;;;;;5017186;28;20044;-59
2023/10/08 08:36:33;;;;;;;17.25;5.03;;;17.80;99.90;;;;;;5018500;28;20024;-58
2023/10/08 08:38:59;;;;;;;16.83;5.80;;;17.80;99.90;;;;;;5021646;28;20408;-59
2023/10/08 08:41:25;;;;;;;13.82;5.20;;;17.90;99.90;;;;;;5019572;28;20091;-59
2023/10/08 08:44:06;;;;;;;19.90;5.53;;;17.90;99.90;;;;;;5016587;28;20062;-59
2023/10/08 08:46:35;;;;;;;16.58;5.20;;;17.90;99.90;;;;;;5019564;28;20072;-61
2023/10/08 08:49:07;;;;;;;17.00;5.13;;;17.90;99.90;;;;;;5019270;28;20036;-59
2023/10/08 08:51:34;;;;;;;14.55;6.32;;;18.00;99.90;;;;;;5018415;28;20022;-59
2023/10/08 08:54:06;;;;;;;15.93;5.60;;;18.00;99.90;;;;;;5019258;28;20049;-55
2023/10/08 08:56:33;;;;;;;16.15;6.28;;;18.10;99.90;;;;;;5020797;28;20041;-60
2023/10/08 08:59:00;;;;;;;12.38;5.20;;;18.10;99.90;;;;;;5017156;28;20315;-55
2023/10/08 09:01:26;;;;;;;21.77;5.80;;;18.10;99.90;;;;;;5020412;28;20021;-57
2023/10/08 09:04:00;;;;;;;24.17;6.88;;;18.20;99.90;;;;;;5020677;28;20102;-62
2023/10/08 09:06:27;;;;;;;16.30;5.43;;;18.20;99.90;;;;;;5019052;28;20104;-62
2023/10/08 09:08:55;;;;;;;20.50;6.75;;;18.30;99.90;;;;;;5020963;28;20036;-59
2023/10/08 09:11:21;;;;;;;21.60;5.63;;;18.30;99.90;;;;;;5021125;28;20028;-59
2023/10/08 09:13:47;;;;;;;15.27;5.50;;;18.30;99.90;;;;;;5017321;28;20038;-59
2023/10/08 09:16:16;;;;;;;19.05;6.15;;;18.30;99.90;;;;;;5013010;28;20448;-60
2023/10/08 09:18:47;;;;;;;18.02;6.28;;;18.40;99.90;;;;;;5014015;28;20033;-59
2023/10/08 09:21:22;;;;;;;17.23;5.90;;;18.40;99.90;;;;;;5015333;28;20100;-61
2023/10/08 09:23:52;;;;;;;17.20;6.65;;;18.50;99.90;;;;;;5019597;28;20033;-59
2023/10/08 09:26:19;;;;;;;22.83;6.72;;;18.60;99.90;;;;;;5023376;28;20026;-59
2023/10/08 09:28:49;;;;;;;19.25;6.15;;;18.50;99.90;;;;;;5014940;28;20108;-59
2023/10/08 09:31:17;;;;;;;22.45;6.72;;;18.50;99.90;;;;;;5009066;28;20022;-59
2023/10/08 09:33:52;;;;;;;28.13;7.88;;;18.50;99.90;;;;;;5012051;28;20022;-60
2023/10/08 09:36:19;;;;;;;28.50;7.22;;;18.60;99.90;;;;;;5016265;28;20041;-58
2023/10/08 09:38:48;;;;;;;25.20;7.28;;;18.50;99.90;;;;;;5015027;28;20034;-58
2023/10/08 09:41:14;;;;;;;29.63;7.75;;;18.50;99.90;;;;;;5026658;28;20116;-61
2023/10/08 09:43:41;;;;;;;36.28;7.68;;;18.40;99.90;;;;;;5012211;28;20567;-58
2023/10/08 09:46:22;;;;;;;36.30;8.55;;;18.50;99.90;;;;;;5015423;28;20509;-57
2023/10/08 09:48:52;;;;;;;38.72;7.57;;;18.60;99.90;;;;;;5012119;28;20037;-59
2023/10/08 09:51:18;;;;;;;25.70;7.75;;;18.70;99.90;;;;;;5015347;28;20028;-61
2023/10/08 09:54:10;;;;;;;35.03;9.27;;;18.70;99.90;;;;;;5014023;28;20030;-52
2023/10/08 09:56:36;;;;;;;29.92;8.32;;;18.80;99.90;;;;;;5014144;28;20026;-59
2023/10/08 09:59:02;;;;;;;24.15;7.38;;;18.70;99.90;;;;;;5011801;28;20103;-58
2023/10/08 10:01:31;;;;;;;25.20;7.45;;;18.80;99.90;;;;;;5015022;28;20086;-58
2023/10/08 10:03:59;;;;;;;31.23;7.50;;;18.90;99.90;;;;;;5013679;28;20022;-59
2023/10/08 10:06:28;;;;;;;29.48;7.53;;;19.00;99.90;;;;;;5015406;28;20075;-60
2023/10/08 10:08:57;;;;;;;24.98;7.30;;;19.00;99.90;;;;;;5018078;28;20172;-57
2023/10/08 10:11:26;;;;;;;25.98;8.07;;;18.90;99.90;;;;;;5017132;28;20160;-56
2023/10/08 10:14:01;;;;;;;26.13;7.30;;;18.80;99.90;;;;;;5018501;28;20478;-57
2023/10/08 10:16:27;;;;;;;30.02;7.43;;;18.90;99.90;;;;;;5027163;28;20491;-54
2023/10/08 10:18:57;;;;;;;21.88;7.78;;;19.10;99.90;;;;;;5014092;28;20105;-54
2023/10/08 10:21:30;;;;;;;31.20;9.02;;;19.10;99.90;;;;;;5019009;28;20040;-53
2023/10/08 10:23:56;;;;;;;29.23;8.37;;;19.10;99.90;;;;;;5012299;28;20021;-59
2023/10/08 10:26:34;;;;;;;31.38;9.00;;;19.10;99.90;;;;;;5015874;28;20650;-59
2023/10/08 10:29:14;;;;;;;24.60;7.82;;;19.10;99.90;;;;;;5029262;28;20107;-54
2023/10/08 10:31:49;;;;;;;24.77;7.95;;;19.10;99.90;;;;;;5019770;28;20029;-56
2023/10/08 10:34:30;;;;;;;24.27;8.52;;;19.20;99.90;;;;;;5019779;28;20056;-56
2023/10/08 10:37:09;;;;;;;23.95;7.57;;;19.20;99.90;;;;;;5024540;28;20021;-54
2023/10/08 10:39:39;;;;;;;24.80;7.40;;;19.20;99.90;;;;;;5021463;28;20068;-61
2023/10/08 10:42:18;;;;;;;34.03;9.63;;;19.30;99.90;;;;;;5024015;28;20995;-57
2023/10/08 10:44:44;;;;;;;30.48;7.95;;;19.30;99.90;;;;;;5022513;28;20030;-52
2023/10/08 10:52:29;;;;;;;22.58;8.07;;;19.60;99.90;;;;;;5018121;28;20423;-61
2023/10/08 10:55:06;;;;;;;36.88;9.63;;;19.80;99.90;;;;;;5013270;28;20033;-59
2023/10/08 10:57:41;;;;;;;28.85;9.15;;;19.80;99.90;;;;;;5021715;28;20038;-57
2023/10/08 11:02:56;;;;;;;31.70;9.55;;;19.70;99.90;;;;;;5022262;28;20041;-59
2023/10/08 11:05:28;;;;;;;22.10;8.65;;;19.60;99.90;;;;;;5022334;28;20403;-60
2023/10/08 11:07:58;;;;;;;24.98;8.20;;;19.80;99.90;;;;;;5022585;28;20099;-57
2023/10/08 11:10:24;;;;;;;23.30;8.23;;;19.80;99.90;;;;;;5014808;28;20453;-59
2023/10/08 11:12:53;;;;;;;33.25;9.35;;;19.90;99.90;;;;;;5016876;28;20017;-59
2023/10/08 11:15:19;;;;;;;32.28;9.93;;;20.00;99.90;;;;;;5017380;28;20458;-59
2023/10/08 11:17:48;;;;;;;28.17;9.05;;;20.10;99.90;;;;;;5023715;28;20035;-61
2023/10/08 11:20:27;;;;;;;33.78;10.40;;;20.20;99.90;;;;;;5019505;28;20586;-57
2023/10/08 11:23:17;;;;;;;31.25;10.07;;;20.60;99.90;;;;;;5019678;28;20104;-57
2023/10/08 11:25:53;;;;;;;29.83;10.23;;;20.80;99.90;;;;;;5012362;28;20036;-57
2023/10/08 11:28:19;;;;;;;25.30;10.30;;;21.10;99.90;;;;;;5016547;28;20026;-59
2023/10/08 11:30:46;;;;;;;32.17;10.25;;;21.30;99.90;;;;;;5019570;28;20608;-56
2023/10/08 11:33:15;;;;;;;28.77;13.27;;;21.50;99.90;;;;;;5016186;28;20082;-58
2023/10/08 11:35:58;;;;;;;26.45;11.32;;;21.60;99.90;;;;;;5016212;28;20060;-60
2023/10/08 11:38:24;;;;;;;40.13;12.70;;;21.60;99.90;;;;;;5015132;28;20021;-58
2023/10/08 11:40:56;;;;;;;35.03;12.90;;;21.70;99.90;;;;;;5016034;28;20026;-59
2023/10/08 11:43:24;;;;;;;33.15;13.10;;;21.60;99.90;;;;;;5014330;28;20052;-60
2023/10/08 11:45:50;;;;;;;34.28;12.23;;;21.70;99.90;;;;;;5016384;28;20022;-62
2023/10/08 11:48:28;;;;;;;36.53;10.60;;;21.60;99.90;;;;;;5014248;28;20033;-58
2023/10/08 11:50:57;;;;;;;27.70;11.32;;;21.70;99.90;;;;;;5019010;28;20172;-60
2023/10/08 11:53:24;;;;;;;47.95;14.73;;;21.90;99.90;;;;;;5018351;28;20029;-60
2023/10/08 11:55:54;;;;;;;37.40;11.82;;;21.80;99.90;;;;;;5017550;28;20397;-58
2023/10/08 11:58:20;;;;;;;33.35;11.85;;;21.70;99.90;;;;;;5011745;28;20034;-60
2023/10/08 12:00:46;;;;;;;32.13;12.70;;;21.70;99.90;;;;;;5016482;28;20026;-59
2023/10/08 12:03:18;;;;;;;34.08;13.38;;;21.80;99.90;;;;;;5018252;28;20415;-57
2023/10/08 12:05:47;;;;;;;34.28;13.02;;;21.60;99.90;;;;;;5021621;28;20077;-61
2023/10/08 12:08:16;;;;;;;35.95;13.45;;;21.70;99.90;;;;;;5017074;28;20068;-57
2023/10/08 12:10:43;;;;;;;36.67;13.20;;;22.00;99.90;;;;;;5018530;28;20033;-60
2023/10/08 12:13:10;;;;;;;28.85;12.95;;;22.10;99.90;;;;;;5020639;28;20080;-59
2023/10/08 12:15:38;;;;;;;36.67;14.93;;;21.70;99.90;;;;;;5013146;28;20030;-57
2023/10/08 12:18:08;;;;;;;36.38;13.27;;;21.30;99.90;;;;;;5016077;28;20036;-59
2023/10/08 12:20:38;;;;;;;32.63;13.38;;;21.20;99.90;;;;;;5021594;28;20022;-58
2023/10/08 12:23:10;;;;;;;36.53;13.30;;;21.10;99.90;;;;;;5021228;28;20022;-60
2023/10/08 12:25:37;;;;;;;36.08;13.60;;;21.00;99.90;;;;;;5013999;28;20030;-61
2023/10/08 12:28:04;;;;;;;38.28;12.55;;;20.90;99.90;;;;;;5023154;28;20037;-59
2023/10/08 12:30:30;;;;;;;38.08;13.35;;;20.80;99.90;;;;;;5019761;28;20384;-60
2023/10/08 12:32:59;;;;;;;30.50;12.68;;;20.80;99.90;;;;;;5017886;28;20030;-56
2023/10/08 12:35:26;;;;;;;32.03;12.32;;;20.70;99.90;;;;;;5016840;28;20026;-57
2023/10/08 12:37:53;;;;;;;28.38;12.32;;;20.80;99.90;;;;;;5015836;28;20030;-58
2023/10/08 12:40:22;;;;;;;31.08;13.40;;;20.70;99.90;;;;;;5018178;28;20112;-60
2023/10/08 12:42:51;;;;;;;35.60;12.95;;;20.60;99.90;;;;;;5017361;28;20030;-58
2023/10/08 12:45:20;;;;;;;39.35;13.77;;;20.50;99.90;;;;;;5013040;28;20392;-59
2023/10/08 12:47:51;;;;;;;31.38;11.88;;;20.40;99.90;;;;;;5015174;28;20396;-58
2023/10/08 12:50:28;;;;;;;33.63;13.13;;;20.50;99.90;;;;;;5010947;28;20029;-57
2023/10/08 12:52:55;;;;;;;33.58;11.40;;;20.50;99.90;;;;;;5014589;28;20030;-58
2023/10/08 12:55:24;;;;;;;33.08;11.48;;;20.50;99.90;;;;;;5015945;28;20430;-57
2023/10/08 12:58:05;;;;;;;30.77;11.90;;;20.50;99.90;;;;;;5012695;28;20029;-60
2023/10/08 13:00:33;;;;;;;28.65;12.52;;;20.60;99.90;;;;;;5017323;28;20519;-61
2023/10/08 13:03:01;;;;;;;31.60;13.55;;;20.50;99.90;;;;;;5015158;28;20495;-56
2023/10/08 13:05:27;;;;;;;29.67;12.02;;;20.50;99.90;;;;;;5026397;28;20021;-60
2023/10/08 13:07:57;;;;;;;38.38;13.60;;;20.50;99.90;;;;;;5025414;28;20025;-58
2023/10/08 13:10:26;;;;;;;33.75;12.55;;;20.40;99.90;;;;;;5015468;28;20134;-59
2023/10/08 13:12:51;;;;;;;40.10;12.40;;;20.50;99.90;;;;;;5018079;28;20028;-58
2023/10/08 13:15:17;;;;;;;29.98;13.18;;;20.40;99.90;;;;;;5023882;28;20025;-56
2023/10/08 13:17:45;;;;;;;29.95;12.65;;;20.60;99.90;;;;;;5022233;28;20459;-59
2023/10/08 13:20:14;;;;;;;33.70;13.05;;;20.60;99.90;;;;;;5025249;28;20167;-60
2023/10/08 13:22:40;;;;;;;31.42;11.80;;;20.60;99.90;;;;;;5017454;28;20547;-54
2023/10/08 13:25:06;;;;;;;25.17;11.13;;;20.80;99.90;;;;;;5014618;28;20112;-58
2023/10/08 13:27:32;;;;;;;33.30;11.23;;;20.80;99.90;;;;;;5025408;28;20029;-56
2023/10/08 13:29:58;;;;;;;28.58;12.95;;;20.90;99.90;;;;;;5020470;28;20480;-59
2023/10/08 13:32:24;;;;;;;34.20;11.98;;;20.80;99.90;;;;;;5022934;28;20045;-55
2023/10/08 13:34:50;;;;;;;39.35;12.00;;;20.70;99.90;;;;;;5018502;28;20038;-57
2023/10/08 13:37:15;;;;;;;28.30;12.32;;;20.70;99.90;;;;;;5025217;28;20035;-55
2023/10/08 13:39:41;;;;;;;28.58;12.48;;;20.60;99.90;;;;;;5022008;28;20037;-56
2023/10/08 13:42:07;;;;;;;34.90;12.00;;;20.50;99.90;;;;;;5015770;28;20076;-57
2023/10/08 13:44:35;;;;;;;36.95;12.55;;;20.50;99.90;;;;;;5015099;28;20064;-57
2023/10/08 13:47:05;;;;;;;33.03;11.77;;;20.50;99.90;;;;;;5018000;28;20106;-60
2023/10/08 13:49:32;;;;;;;33.85;11.65;;;20.50;99.90;;;;;;5015167;28;20528;-56
2023/10/08 13:51:57;;;;;;;26.02;12.43;;;20.50;99.90;;;;;;5024749;28;20029;-55
2023/10/08 13:54:28;;;;;;;30.50;12.68;;;20.60;99.90;;;;;;5020568;28;20486;-58
2023/10/08 13:56:55;;;;;;;27.23;11.40;;;20.60;99.90;;;;;;5032714;28;20042;-52
2023/10/08 13:59:24;;;;;;;35.47;11.98;;;20.70;99.90;;;;;;5016869;28;21906;-58